createdAt,value
2022-12-09T00:01:12.659Z,11.88
2022-12-09T00:03:40.766Z,11.55
2022-12-09T00:06:15.028Z,12.48
2022-12-09T00:08:42.907Z,10.70
2022-12-09T00:11:10.602Z,11.15
2022-12-09T00:13:38.107Z,11.00
2022-12-09T00:16:10.810Z,11.32
2022-12-09T00:18:39.193Z,11.10
2022-12-09T00:21:20.022Z,10.85
2022-12-09T00:23:48.617Z,11.63
2022-12-09T00:26:17.273Z,11.50
2022-12-09T00:28:44.999Z,11.60
2022-12-09T00:31:14.959Z,11.55
2022-12-09T00:33:42.957Z,12.20
2022-12-09T00:36:14.664Z,11.23
2022-12-09T00:38:43.041Z,12.38
2022-12-09T00:41:11.350Z,10.45
2022-12-09T00:43:39.028Z,12.10
2022-12-09T00:46:06.383Z,11.73
2022-12-09T00:48:38.633Z,12.10
2022-12-09T00:51:07.777Z,11.27
2022-12-09T00:53:35.238Z,11.00
2022-12-09T00:56:02.537Z,12.55
2022-12-09T00:58:29.799Z,11.77
2022-12-09T01:00:57.465Z,11.52
2022-12-09T01:03:25.098Z,11.68
2022-12-09T01:05:52.676Z,11.32
2022-12-09T01:08:20.401Z,11.32
2022-12-09T01:10:48.179Z,12.73
2022-12-09T01:13:16.378Z,11.07
2022-12-09T01:15:43.978Z,11.77
2022-12-09T01:18:14.141Z,11.60
2022-12-09T01:20:41.602Z,11.57
2022-12-09T01:23:09.222Z,12.75
2022-12-09T01:25:38.229Z,12.45
2022-12-09T01:28:05.669Z,12.27
2022-12-09T01:30:33.224Z,11.57
2022-12-09T01:33:01.054Z,11.88
2022-12-09T01:35:28.806Z,11.07
2022-12-09T01:37:56.256Z,11.50
2022-12-09T01:40:23.760Z,11.40
2022-12-09T01:42:51.703Z,11.45
2022-12-09T01:45:30.775Z,11.40
2022-12-09T01:48:03.805Z,11.20
2022-12-09T01:52:59.460Z,11.32
2022-12-09T01:55:27.845Z,10.88
2022-12-09T01:57:55.466Z,11.52
2022-12-09T02:00:22.866Z,10.43
2022-12-09T02:02:53.461Z,10.93
2022-12-09T02:05:24.416Z,10.20
2022-12-09T02:07:58.632Z,10.68
2022-12-09T02:10:27.501Z,9.13
2022-12-09T02:13:22.585Z,9.75
2022-12-09T02:15:57.891Z,10.13
2022-12-09T02:18:40.316Z,10.60
2022-12-09T02:21:14.384Z,9.65
2022-12-09T02:23:53.600Z,9.30
2022-12-09T02:26:45.333Z,9.77
2022-12-09T02:29:39.558Z,9.90
2022-12-09T02:32:31.700Z,10.18
2022-12-09T02:35:17.428Z,9.40
2022-12-09T02:37:54.747Z,9.38
2022-12-09T02:40:27.483Z,8.98
2022-12-09T02:42:56.457Z,8.60
2022-12-09T02:45:26.894Z,9.40
2022-12-09T02:47:58.810Z,8.52
2022-12-09T02:50:31.671Z,9.43
2022-12-09T02:53:05.211Z,8.15
2022-12-09T02:58:03.249Z,8.60
2022-12-09T03:00:33.625Z,8.80
2022-12-09T03:03:04.674Z,8.60
2022-12-09T03:05:49.553Z,8.60
2022-12-09T03:08:35.707Z,8.55
2022-12-09T03:11:06.432Z,8.73
2022-12-09T03:14:13.209Z,9.48
2022-12-09T03:16:44.679Z,8.77
2022-12-09T03:19:22.574Z,9.55
2022-12-09T03:21:53.550Z,9.18
2022-12-09T03:24:24.873Z,10.32
2022-12-09T03:26:53.827Z,8.93
2022-12-09T03:29:26.949Z,9.18
2022-12-09T03:34:28.741Z,9.05
2022-12-09T03:36:58.433Z,8.82
2022-12-09T03:39:30.755Z,9.07
2022-12-09T03:42:03.682Z,9.00
2022-12-09T03:44:45.241Z,8.73
2022-12-09T03:47:13.049Z,8.02
2022-12-09T03:49:41.115Z,8.73
2022-12-09T03:52:13.429Z,9.13
2022-12-09T03:54:49.834Z,9.10
2022-12-09T03:57:19.976Z,8.63
2022-12-09T03:59:59.956Z,8.90
2022-12-09T04:02:28.391Z,8.98
2022-12-09T04:04:56.189Z,8.25
2022-12-09T04:07:23.817Z,9.20
2022-12-09T04:09:51.316Z,9.05
2022-12-09T04:12:18.852Z,9.40
2022-12-09T04:14:46.451Z,8.98
2022-12-09T04:17:13.864Z,8.82
2022-12-09T04:19:41.281Z,8.82
2022-12-09T04:22:08.600Z,8.82
2022-12-09T04:24:36.905Z,9.23
2022-12-09T04:27:04.309Z,8.98
2022-12-09T04:29:31.908Z,9.07
2022-12-09T04:31:59.602Z,9.63
2022-12-09T04:34:27.102Z,9.32
2022-12-09T04:36:54.366Z,9.65
2022-12-09T04:39:21.656Z,9.27
2022-12-09T04:41:49.008Z,8.95
2022-12-09T04:44:16.344Z,9.43
2022-12-09T04:46:44.175Z,8.65
2022-12-09T04:49:11.897Z,9.30
2022-12-09T04:51:40.315Z,8.25
2022-12-09T04:54:13.062Z,9.15
2022-12-09T04:56:40.979Z,10.40
2022-12-09T04:59:08.696Z,9.73
2022-12-09T05:01:36.511Z,9.65
2022-12-09T05:04:04.417Z,8.77
2022-12-09T05:06:32.678Z,9.80
2022-12-09T05:09:00.316Z,9.75
2022-12-09T05:11:28.287Z,9.77
2022-12-09T05:13:56.024Z,9.30
2022-12-09T05:16:23.465Z,9.90
2022-12-09T05:18:51.539Z,9.10
2022-12-09T05:21:20.847Z,10.77
2022-12-09T05:23:48.909Z,9.50
2022-12-09T05:26:20.248Z,9.68
2022-12-09T05:28:48.388Z,9.55
2022-12-09T05:31:20.018Z,9.10
2022-12-09T05:33:48.725Z,8.77
2022-12-09T05:36:19.540Z,9.55
2022-12-09T05:38:49.078Z,8.55
2022-12-09T05:41:18.426Z,9.45
2022-12-09T05:43:46.634Z,9.25
2022-12-09T05:46:15.811Z,9.50
2022-12-09T05:48:44.268Z,9.77
2022-12-09T05:51:21.201Z,9.07
2022-12-09T05:53:48.729Z,9.25
2022-12-09T05:56:17.931Z,8.60
2022-12-09T05:58:46.206Z,8.63
2022-12-09T06:01:14.935Z,9.10
2022-12-09T06:03:42.960Z,9.30
2022-12-09T06:06:13.762Z,8.93
2022-12-09T06:08:42.679Z,8.65
2022-12-09T06:11:13.961Z,9.38
2022-12-09T06:13:42.437Z,9.43
2022-12-09T06:16:10.576Z,9.38
2022-12-09T06:18:38.573Z,9.52
2022-12-09T06:21:08.138Z,8.73
2022-12-09T06:23:36.713Z,9.40
2022-12-09T06:26:05.087Z,9.00
2022-12-09T06:28:33.280Z,7.97
2022-12-09T06:31:00.887Z,7.50
2022-12-09T06:36:16.173Z,8.65
2022-12-09T06:38:43.885Z,8.70
2022-12-09T06:41:14.319Z,9.07
2022-12-09T06:43:42.081Z,8.15
2022-12-09T06:46:20.614Z,8.50
2022-12-09T06:48:48.961Z,8.20
2022-12-09T06:51:17.852Z,8.48
2022-12-09T06:53:45.596Z,7.93
2022-12-09T06:56:14.274Z,8.48
2022-12-09T06:58:43.711Z,8.05
2022-12-09T07:01:17.514Z,8.43
2022-12-09T07:03:48.120Z,8.50
2022-12-09T07:06:27.799Z,9.00
2022-12-09T07:08:57.712Z,8.35
2022-12-09T07:11:26.472Z,8.68
2022-12-09T07:13:54.158Z,9.10
2022-12-09T07:16:21.977Z,7.80
2022-12-09T07:18:50.319Z,7.90
2022-12-09T07:21:20.035Z,8.57
2022-12-09T07:23:48.540Z,8.65
2022-12-09T07:26:16.971Z,8.35
2022-12-09T07:28:47.312Z,8.45
2022-12-09T07:31:26.769Z,7.93
2022-12-09T07:33:57.516Z,7.80
2022-12-09T07:36:27.856Z,8.15
2022-12-09T07:38:57.224Z,7.93
2022-12-09T07:41:25.135Z,8.07
2022-12-09T07:43:53.719Z,7.07
2022-12-09T07:46:23.438Z,7.32
2022-12-09T07:48:51.197Z,6.47
2022-12-09T07:51:19.333Z,7.90
2022-12-09T07:53:47.867Z,7.93
2022-12-09T07:56:16.961Z,7.70
2022-12-09T07:58:47.864Z,6.78
2022-12-09T08:01:19.594Z,7.45
2022-12-09T08:03:48.468Z,7.13
2022-12-09T08:06:19.410Z,7.75
2022-12-09T08:08:47.534Z,6.93
2022-12-09T08:11:18.113Z,7.82
2022-12-09T08:13:45.794Z,9.13
2022-12-09T08:16:15.977Z,10.20
2022-12-09T08:18:44.767Z,10.30
2022-12-09T08:21:16.760Z,11.10
2022-12-09T08:23:45.100Z,9.40
2022-12-09T08:26:14.431Z,10.25
2022-12-09T08:28:42.275Z,9.95
2022-12-09T08:31:16.869Z,10.40
2022-12-09T08:33:45.025Z,10.27
2022-12-09T08:36:15.449Z,9.98
2022-12-09T08:38:44.203Z,9.77
2022-12-09T08:41:14.897Z,10.43
2022-12-09T08:43:43.790Z,11.80
2022-12-09T08:46:12.861Z,10.48
2022-12-09T08:48:42.602Z,10.90
2022-12-09T08:51:11.727Z,10.25
2022-12-09T08:53:39.960Z,10.55
2022-12-09T08:56:09.518Z,11.27
2022-12-09T08:58:37.470Z,10.85
2022-12-09T09:01:05.711Z,8.73
2022-12-09T09:03:33.560Z,8.23
2022-12-09T09:06:10.416Z,11.90
2022-12-09T09:08:39.666Z,13.50
2022-12-09T09:11:20.762Z,10.65
2022-12-09T09:13:51.659Z,8.35
2022-12-09T09:16:22.874Z,6.80
2022-12-09T09:18:51.562Z,6.32
2022-12-09T09:21:22.536Z,6.05
2022-12-09T09:23:50.977Z,5.93
2022-12-09T09:26:21.337Z,5.32
2022-12-09T09:28:50.234Z,5.70
2022-12-09T09:31:20.489Z,5.28
2022-12-09T09:33:48.885Z,5.00
2022-12-09T09:36:20.980Z,5.15
2022-12-09T09:38:49.977Z,4.53
2022-12-09T09:41:42.707Z,4.47
2022-12-09T09:44:44.067Z,4.85
2022-12-09T09:47:38.721Z,3.92
2022-12-09T09:50:26.571Z,4.22
2022-12-09T09:52:56.035Z,4.30
2022-12-09T09:55:38.237Z,4.32
2022-12-09T09:58:12.505Z,3.88
2022-12-09T10:01:04.237Z,4.28
2022-12-09T10:04:10.316Z,4.28
2022-12-09T10:07:26.136Z,3.88
2022-12-09T10:10:16.697Z,3.85
2022-12-09T10:13:09.407Z,3.63
2022-12-09T10:15:53.997Z,3.45
2022-12-09T10:18:29.052Z,3.55
2022-12-09T10:20:56.623Z,3.70
2022-12-09T10:23:27.060Z,3.42
2022-12-09T10:25:58.539Z,3.30
2022-12-09T10:28:42.477Z,3.60
2022-12-09T10:31:11.110Z,3.40
2022-12-09T10:33:40.270Z,3.25
2022-12-09T10:36:22.859Z,3.50
2022-12-09T10:38:50.330Z,3.50
2022-12-09T10:41:59.264Z,3.10
2022-12-09T10:44:28.337Z,3.80
2022-12-09T10:47:08.070Z,3.17
2022-12-09T10:49:36.210Z,3.22
2022-12-09T10:52:05.334Z,3.33
2022-12-09T10:54:40.284Z,3.20
2022-12-09T10:57:13.767Z,3.60
2022-12-09T10:59:55.412Z,3.15
2022-12-09T11:02:23.810Z,3.08
2022-12-09T11:04:51.632Z,3.38
2022-12-09T11:07:22.925Z,3.13
2022-12-09T11:10:19.197Z,3.28
2022-12-09T11:12:52.024Z,3.15
2022-12-09T11:15:35.374Z,2.78
2022-12-09T11:20:35.523Z,2.95
2022-12-09T11:23:12.387Z,3.50
2022-12-09T11:25:59.350Z,2.90
2022-12-09T11:28:40.530Z,2.83
2022-12-09T11:31:34.267Z,3.28
2022-12-09T11:34:16.265Z,2.80
2022-12-09T11:36:52.757Z,2.75
2022-12-09T11:39:33.421Z,3.08
2022-12-09T11:42:17.440Z,3.15
2022-12-09T11:44:58.235Z,2.42
2022-12-09T11:47:44.843Z,2.63
2022-12-09T11:50:25.294Z,2.83
2022-12-09T11:53:08.173Z,2.45
2022-12-09T11:55:41.941Z,2.80
2022-12-09T11:58:15.533Z,2.78
2022-12-09T12:01:10.526Z,3.00
2022-12-09T12:04:01.657Z,2.80
2022-12-09T12:06:53.278Z,2.33
2022-12-09T12:09:45.153Z,2.70
2022-12-09T12:12:44.846Z,2.70
2022-12-09T12:15:37.865Z,2.40
2022-12-09T12:18:13.273Z,2.38
2022-12-09T12:20:49.278Z,3.05
2022-12-09T12:24:01.620Z,2.03
2022-12-09T12:26:40.055Z,2.40
2022-12-09T12:29:26.362Z,2.53
2022-12-09T12:32:12.677Z,2.08
2022-12-09T12:34:55.026Z,2.03
2022-12-09T12:38:00.853Z,2.72
2022-12-09T12:40:36.775Z,2.47
2022-12-09T12:43:49.380Z,2.70
2022-12-09T12:46:47.212Z,2.38
2022-12-09T12:49:46.141Z,2.42
2022-12-09T12:52:59.016Z,2.70
2022-12-09T12:55:44.784Z,2.47
2022-12-09T12:58:39.506Z,2.30
2022-12-09T13:01:15.388Z,2.15
2022-12-09T13:04:00.971Z,1.92
2022-12-09T13:06:41.337Z,2.33
2022-12-09T13:09:19.990Z,1.95
2022-12-09T13:12:02.164Z,2.10
2022-12-09T13:14:36.728Z,2.33
2022-12-09T13:17:07.672Z,2.40
2022-12-09T13:19:41.333Z,2.10
2022-12-09T13:22:19.513Z,2.25
2022-12-09T13:25:00.371Z,2.63
2022-12-09T13:27:42.178Z,2.03
2022-12-09T13:30:13.287Z,2.03
2022-12-09T13:32:51.411Z,2.33
2022-12-09T13:35:18.789Z,2.20
2022-12-09T13:37:46.070Z,1.73
2022-12-09T13:40:36.816Z,1.73
2022-12-09T13:43:04.101Z,2.25
2022-12-09T13:45:47.025Z,2.00
2022-12-09T13:48:17.216Z,2.45
2022-12-09T13:50:57.577Z,2.03
2022-12-09T13:53:34.319Z,2.28
2022-12-09T13:56:06.224Z,2.20
2022-12-09T13:59:01.276Z,2.33
2022-12-09T14:01:31.574Z,2.45
2022-12-09T14:04:08.148Z,2.10
2022-12-09T14:06:44.700Z,2.15
2022-12-09T14:09:37.815Z,2.08
2022-12-09T14:12:12.316Z,2.53
2022-12-09T14:14:52.849Z,1.85
2022-12-09T14:17:26.934Z,2.42
2022-12-09T14:20:02.701Z,2.10
2022-12-09T14:22:34.994Z,2.50
2022-12-09T14:25:28.263Z,2.10
2022-12-09T14:28:13.778Z,2.28
2022-12-09T14:30:48.307Z,2.00
2022-12-09T14:33:30.506Z,1.63
2022-12-09T14:36:04.994Z,1.85
2022-12-09T14:39:23.068Z,1.95
2022-12-09T14:41:53.005Z,2.35
2022-12-09T14:44:35.188Z,2.38
2022-12-09T14:47:21.032Z,2.10
2022-12-09T14:49:50.694Z,1.83
2022-12-09T14:52:22.146Z,1.95
2022-12-09T14:54:49.799Z,1.92
2022-12-09T14:57:47.605Z,1.75
2022-12-09T15:00:40.836Z,1.95
2022-12-09T15:03:45.432Z,2.15
2022-12-09T15:06:18.184Z,1.85
2022-12-09T15:08:46.786Z,1.58
2022-12-09T15:11:18.452Z,1.85
2022-12-09T15:13:49.365Z,1.90
2022-12-09T15:16:20.222Z,1.58
2022-12-09T15:18:48.615Z,1.60
2022-12-09T15:21:32.806Z,1.80
2022-12-09T15:24:01.051Z,1.80
2022-12-09T15:26:33.209Z,1.73
2022-12-09T15:29:05.079Z,1.70
2022-12-09T15:31:34.419Z,1.85
2022-12-09T15:34:11.903Z,2.15
2022-12-09T15:36:44.145Z,1.80
2022-12-09T15:39:31.381Z,1.63
2022-12-09T15:42:08.100Z,1.52
2022-12-09T15:44:44.325Z,1.90
2022-12-09T15:47:20.979Z,1.70
2022-12-09T15:50:25.348Z,1.45
2022-12-09T15:53:14.112Z,1.55
2022-12-09T15:56:07.424Z,1.52
2022-12-09T15:58:40.934Z,1.75
2022-12-09T16:01:09.013Z,1.50
2022-12-09T16:03:38.039Z,1.58
2022-12-09T16:06:08.479Z,1.60
2022-12-09T16:08:39.298Z,1.70
2022-12-09T16:11:07.420Z,1.70
2022-12-09T16:13:34.996Z,1.70
2022-12-09T16:16:24.436Z,1.70
2022-12-09T16:18:51.853Z,1.70
2022-12-09T16:21:32.482Z,1.70
2022-12-09T16:24:12.069Z,1.75
2022-12-09T16:26:44.338Z,1.67
2022-12-09T16:29:36.299Z,2.10
2022-12-09T16:32:33.376Z,1.30
2022-12-09T16:35:22.530Z,1.50
2022-12-09T16:38:10.298Z,1.70
2022-12-09T16:40:46.137Z,1.67
2022-12-09T16:43:16.496Z,1.80
2022-12-09T16:45:46.185Z,1.60
2022-12-09T16:48:13.954Z,1.80
2022-12-09T16:51:02.725Z,1.60
2022-12-09T16:53:37.277Z,1.73
2022-12-09T16:56:04.914Z,2.03
2022-12-09T16:58:34.377Z,1.60
2022-12-09T17:01:04.249Z,1.75
2022-12-09T17:03:37.183Z,1.83
2022-12-09T17:06:05.081Z,1.70
2022-12-09T17:08:32.427Z,1.90
2022-12-09T17:11:00.130Z,1.52
2022-12-09T17:13:27.943Z,1.70
2022-12-09T17:15:58.719Z,1.70
2022-12-09T17:18:27.047Z,1.80
2022-12-09T17:21:01.714Z,1.50
2022-12-09T17:23:29.051Z,1.45
2022-12-09T17:26:03.890Z,1.73
2022-12-09T17:28:31.367Z,1.70
2022-12-09T17:30:59.381Z,1.80
2022-12-09T17:33:30.009Z,1.70
2022-12-09T17:35:57.363Z,1.65
2022-12-09T17:38:24.750Z,1.75
2022-12-09T17:40:51.975Z,1.92
2022-12-09T17:43:19.295Z,1.73
2022-12-09T17:45:46.567Z,1.85
2022-12-09T17:48:13.907Z,1.95
2022-12-09T17:50:42.453Z,2.30
2022-12-09T17:53:09.804Z,2.00
2022-12-09T17:55:39.021Z,2.00
2022-12-09T17:58:06.345Z,2.50
2022-12-09T18:00:33.837Z,2.40
2022-12-09T18:03:01.089Z,2.20
2022-12-09T18:05:28.387Z,2.28
2022-12-09T18:07:55.756Z,2.53
2022-12-09T18:10:23.088Z,2.17
2022-12-09T18:12:50.298Z,2.50
2022-12-09T18:15:17.585Z,2.50
2022-12-09T18:17:44.876Z,2.80
2022-12-09T18:20:13.064Z,2.45
2022-12-09T18:22:40.698Z,2.92
2022-12-09T18:25:08.367Z,2.30
2022-12-09T18:27:35.724Z,2.67
2022-12-09T18:30:03.565Z,2.72
2022-12-09T18:32:35.871Z,2.63
2022-12-09T18:35:04.472Z,2.70
2022-12-09T18:37:31.792Z,2.60
2022-12-09T18:39:59.825Z,2.83
2022-12-09T18:42:27.223Z,3.55
2022-12-09T18:44:54.513Z,3.28
2022-12-09T18:47:21.953Z,2.78
2022-12-09T18:49:49.254Z,2.92
2022-12-09T18:52:16.612Z,2.47
2022-12-09T18:54:44.413Z,3.50
2022-12-09T18:57:11.708Z,4.03
2022-12-09T18:59:39.067Z,4.53
2022-12-09T19:02:06.411Z,6.18
2022-12-09T19:04:33.856Z,8.05
2022-12-09T19:07:02.104Z,10.40
2022-12-09T19:09:34.668Z,8.55
2022-12-09T19:12:37.928Z,8.75
2022-12-09T19:14:51.629Z,10.07
2022-12-09T19:17:19.135Z,10.32
2022-12-09T19:19:47.431Z,11.25
2022-12-09T19:22:14.853Z,10.45
2022-12-09T19:24:43.311Z,11.00
2022-12-09T19:27:10.868Z,9.77
2022-12-09T19:29:39.405Z,10.18
2022-12-09T19:32:23.566Z,10.02
2022-12-09T19:34:54.372Z,9.80
2022-12-09T19:37:22.153Z,8.40
2022-12-09T19:39:50.309Z,8.27
2022-12-09T19:42:19.168Z,9.20
2022-12-09T19:45:06.422Z,8.35
2022-12-09T19:47:35.559Z,8.65
2022-12-09T19:50:02.996Z,8.77
2022-12-09T19:52:30.251Z,8.27
2022-12-09T19:54:57.547Z,8.57
2022-12-09T19:57:24.781Z,8.60
2022-12-09T19:59:52.133Z,8.57
2022-12-09T20:02:19.566Z,7.70
2022-12-09T20:04:49.213Z,7.45
2022-12-09T20:07:17.941Z,8.52
2022-12-09T20:09:45.251Z,6.85
2022-12-09T20:12:12.583Z,6.82
2022-12-09T20:14:40.027Z,6.47
2022-12-09T20:17:07.970Z,6.55
2022-12-09T20:19:36.775Z,6.78
2022-12-09T20:22:04.773Z,6.57
2022-12-09T20:24:32.099Z,6.43
2022-12-09T20:26:59.559Z,5.88
2022-12-09T20:29:27.639Z,6.38
2022-12-09T20:31:57.517Z,5.57
2022-12-09T20:34:26.246Z,6.25
2022-12-09T20:36:53.650Z,5.75
2022-12-09T20:39:21.235Z,5.68
2022-12-09T20:41:48.929Z,5.60
2022-12-09T20:44:17.738Z,5.70
2022-12-09T20:46:47.456Z,4.63
2022-12-09T20:49:15.018Z,5.43
2022-12-09T20:51:47.016Z,5.15
2022-12-09T20:54:14.504Z,5.20
2022-12-09T20:56:42.240Z,5.00
2022-12-09T20:59:13.821Z,5.38
2022-12-09T21:01:41.326Z,4.65
2022-12-09T21:04:08.679Z,5.30
2022-12-09T21:06:39.278Z,4.60
2022-12-09T21:09:10.460Z,4.65
2022-12-09T21:11:38.196Z,4.45
2022-12-09T21:14:06.979Z,4.28
2022-12-09T21:16:37.991Z,4.30
2022-12-09T21:19:07.405Z,4.93
2022-12-09T21:21:38.462Z,4.63
2022-12-09T21:24:06.772Z,4.57
2022-12-09T21:26:34.069Z,4.55
2022-12-09T21:29:01.763Z,4.28
2022-12-09T21:31:32.382Z,4.28
2022-12-09T21:34:03.006Z,5.40
2022-12-09T21:36:35.680Z,4.10
2022-12-09T21:39:04.450Z,4.88
2022-12-09T21:41:33.875Z,4.15
2022-12-09T21:44:01.288Z,4.22
2022-12-09T21:46:31.823Z,4.85
2022-12-09T21:49:03.895Z,4.18
2022-12-09T21:51:34.640Z,5.65
2022-12-09T21:54:02.425Z,4.38
2022-12-09T21:56:32.753Z,3.80
2022-12-09T21:59:00.667Z,3.70
2022-12-09T22:01:34.613Z,3.78
2022-12-09T22:04:04.484Z,4.30
2022-12-09T22:06:35.209Z,4.15
2022-12-09T22:09:04.666Z,4.50
2022-12-09T22:11:34.861Z,4.00
2022-12-09T22:14:03.160Z,4.40
2022-12-09T22:16:33.918Z,4.05
2022-12-09T22:19:03.062Z,4.55
2022-12-09T22:21:33.456Z,4.32
2022-12-09T22:24:03.201Z,3.22
2022-12-09T22:26:31.231Z,4.32
2022-12-09T22:29:00.489Z,3.25
2022-12-09T22:31:30.616Z,3.53
2022-12-09T22:34:03.950Z,3.58
2022-12-09T22:36:31.351Z,4.30
2022-12-09T22:38:58.850Z,4.20
2022-12-09T22:41:28.071Z,3.75
2022-12-09T22:43:56.527Z,4.47
2022-12-09T22:46:29.790Z,4.00
2022-12-09T22:48:59.716Z,4.32
2022-12-09T22:51:29.335Z,4.03
2022-12-09T22:53:57.639Z,3.53
2022-12-09T22:56:25.668Z,3.88
2022-12-09T22:58:53.441Z,4.18
2022-12-09T23:01:26.614Z,4.15
2022-12-09T23:03:55.507Z,3.55
2022-12-09T23:06:24.519Z,3.55
2022-12-09T23:08:52.567Z,3.50
2022-12-09T23:11:22.974Z,3.90
2022-12-09T23:13:50.785Z,3.85
2022-12-09T23:16:22.440Z,3.75
2022-12-09T23:18:51.405Z,3.95
2022-12-09T23:21:28.511Z,3.40
2022-12-09T23:24:00.895Z,3.92
2022-12-09T23:26:30.436Z,2.85
2022-12-09T23:28:59.810Z,3.47
2022-12-09T23:31:29.898Z,3.83
2022-12-09T23:33:58.245Z,3.63
2022-12-09T23:36:31.037Z,3.35
2022-12-09T23:38:59.596Z,3.47
2022-12-09T23:41:27.724Z,3.20
2022-12-09T23:43:55.432Z,3.30
2022-12-09T23:46:25.358Z,3.40
2022-12-09T23:48:54.118Z,3.40
2022-12-09T23:51:27.184Z,2.78
2022-12-09T23:56:25.560Z,3.08
2022-12-09T23:58:55.190Z,3.40
